sensor_id;sensor_type;location;lat;lon;timestamp;pressure;altitude;pressure_sealevel;temperature;humidity
34243;BME280;20504;43.214;27.920;2023-04-15T12:14:38;100859.66;;;29.03;100.00
34243;BME280;20504;43.214;27.920;2023-04-15T12:17:05;100795.69;;;29.95;100.00
34243;BME280;20504;43.214;27.920;2023-04-15T12:22:08;100845.56;;;30.60;100.00
34243;BME280;20504;43.214;27.920;2023-04-15T12:24:35;100908.19;;;30.43;100.00
34243;BME280;20504;43.214;27.920;2023-04-15T12:27:06;100874.97;;;31.21;100.00
34243;BME280;20504;43.214;27.920;2023-04-15T12:29:34;100824.22;;;31.55;100.00
34243;BME280;20504;43.214;27.920;2023-04-15T12:32:13;100812.97;;;31.63;100.00
34243;BME280;20504;43.214;27.920;2023-04-15T12:34:40;100719.63;;;32.30;100.00
34243;BME280;20504;43.214;27.920;2023-04-15T12:37:08;100705.56;;;32.85;100.00
34243;BME280;20504;43.214;27.920;2023-04-15T12:39:35;100833.84;;;31.64;100.00
34243;BME280;20504;43.214;27.920;2023-04-15T12:42:03;100811.69;;;31.29;100.00
34243;BME280;20504;43.214;27.920;2023-04-15T12:44:29;100799.38;;;32.16;100.00
34243;BME280;20504;43.214;27.920;2023-04-15T12:46:55;100666.09;;;31.97;100.00
34243;BME280;20504;43.214;27.920;2023-04-15T12:49:21;100394.63;;;31.85;100.00
34243;BME280;20504;43.214;27.920;2023-04-15T12:51:48;99873.75;;;31.90;100.00
34243;BME280;20504;43.214;27.920;2023-04-15T12:54:15;100222.22;;;32.51;100.00
34243;BME280;20504;43.214;27.920;2023-04-15T12:56:41;100190.47;;;32.38;100.00
34243;BME280;20504;43.214;27.920;2023-04-15T12:59:06;100215.56;;;32.80;100.00
34243;BME280;20504;43.214;27.920;2023-04-15T13:01:32;100292.53;;;32.86;100.00
34243;BME280;20504;43.214;27.920;2023-04-15T13:03:57;100312.44;;;32.93;100.00
34243;BME280;20504;43.214;27.920;2023-04-15T13:06:23;100371.78;;;33.10;100.00
34243;BME280;20504;43.214;27.920;2023-04-15T13:08:49;100393.41;;;33.79;100.00
34243;BME280;20504;43.214;27.920;2023-04-15T13:11:15;100417.50;;;34.11;100.00
34243;BME280;20504;43.214;27.920;2023-04-15T13:13:41;100432.53;;;34.74;100.00
34243;BME280;20504;43.214;27.920;2023-04-15T13:16:07;100485.16;;;34.50;100.00
34243;BME280;20504;43.214;27.920;2023-04-15T13:18:32;100516.47;;;35.15;100.00
34243;BME280;20504;43.214;27.920;2023-04-15T13:20:59;100494.81;;;35.61;100.00
34243;BME280;20504;43.214;27.920;2023-04-15T13:23:25;100536.56;;;35.74;100.00
34243;BME280;20504;43.214;27.920;2023-04-15T13:25:50;100666.88;;;34.00;100.00
34243;BME280;20504;43.214;27.920;2023-04-15T13:28:16;100772.84;;;32.29;100.00
34243;BME280;20504;43.214;27.920;2023-04-15T13:30:42;100838.00;;;30.62;100.00
34243;BME280;20504;43.214;27.920;2023-04-15T13:33:08;100812.97;;;29.17;100.00
34243;BME280;20504;43.214;27.920;2023-04-15T13:35:34;101002.16;;;27.55;100.00
34243;BME280;20504;43.214;27.920;2023-04-15T13:38:00;100998.13;;;27.23;100.00
34243;BME280;20504;43.214;27.920;2023-04-15T13:40:25;100962.97;;;26.85;100.00
34243;BME280;20504;43.214;27.920;2023-04-15T13:42:51;100898.91;;;26.82;100.00
34243;BME280;20504;43.214;27.920;2023-04-15T13:45:17;100847.97;;;26.48;100.00
34243;BME280;20504;43.214;27.920;2023-04-15T13:47:43;100790.66;;;26.07;100.00
34243;BME280;20504;43.214;27.920;2023-04-15T13:50:09;100807.19;;;25.91;100.00
34243;BME280;20504;43.214;27.920;2023-04-15T13:52:35;100744.53;;;25.78;100.00
34243;BME280;20504;43.214;27.920;2023-04-15T13:55:02;100700.34;;;25.33;100.00
34243;BME280;20504;43.214;27.920;2023-04-15T13:57:27;100550.75;;;27.09;100.00
34243;BME280;20504;43.214;27.920;2023-04-15T13:59:53;100636.78;;;27.03;100.00
34243;BME280;20504;43.214;27.920;2023-04-15T14:02:20;100622.13;;;26.63;100.00
34243;BME280;20504;43.214;27.920;2023-04-15T14:04:46;100609.88;;;26.46;100.00
34243;BME280;20504;43.214;27.920;2023-04-15T14:07:11;100571.53;;;26.75;100.00
34243;BME280;20504;43.214;27.920;2023-04-15T14:09:37;100492.94;;;27.99;100.00
34243;BME280;20504;43.214;27.920;2023-04-15T14:12:02;100463.56;;;28.59;100.00
34243;BME280;20504;43.214;27.920;2023-04-15T14:14:28;100486.50;;;29.78;100.00
34243;BME280;20504;43.214;27.920;2023-04-15T14:16:54;100504.34;;;30.90;100.00
34243;BME280;20504;43.214;27.920;2023-04-15T14:19:22;100618.69;;;31.25;100.00
34243;BME280;20504;43.214;27.920;2023-04-15T14:21:48;100654.75;;;31.52;100.00
34243;BME280;20504;43.214;27.920;2023-04-15T14:24:13;100663.25;;;32.15;100.00
34243;BME280;20504;43.214;27.920;2023-04-15T14:26:39;100708.63;;;32.18;100.00
34243;BME280;20504;43.214;27.920;2023-04-15T14:29:04;100710.81;;;32.74;100.00
34243;BME280;20504;43.214;27.920;2023-04-15T14:31:31;100738.63;;;32.55;100.00
34243;BME280;20504;43.214;27.920;2023-04-15T14:33:58;100703.41;;;33.38;100.00
34243;BME280;20504;43.214;27.920;2023-04-15T14:36:25;100769.41;;;32.57;100.00
34243;BME280;20504;43.214;27.920;2023-04-15T14:39:03;100875.59;;;30.98;100.00
34243;BME280;20504;43.214;27.920;2023-04-15T14:41:30;100914.13;;;28.37;100.00
34243;BME280;20504;43.214;27.920;2023-04-15T14:43:57;100771.41;;;28.16;100.00
34243;BME280;20504;43.214;27.920;2023-04-15T14:46:24;100726.78;;;28.37;100.00
34243;BME280;20504;43.214;27.920;2023-04-15T14:48:50;100653.88;;;27.52;100.00
34243;BME280;20504;43.214;27.920;2023-04-15T14:51:16;100510.78;;;27.42;100.00
34243;BME280;20504;43.214;27.920;2023-04-15T14:53:43;100357.25;;;26.84;100.00
34243;BME280;20504;43.214;27.920;2023-04-15T14:56:09;100099.41;;;25.14;100.00
34243;BME280;20504;43.214;27.920;2023-04-15T14:58:35;99775.66;;;26.36;100.00
34243;BME280;20504;43.214;27.920;2023-04-15T15:01:01;99780.91;;;28.04;100.00
34243;BME280;20504;43.214;27.920;2023-04-15T15:03:27;99924.50;;;28.58;100.00
34243;BME280;20504;43.214;27.920;2023-04-15T15:05:53;100029.59;;;29.93;100.00
34243;BME280;20504;43.214;27.920;2023-04-15T15:08:20;100233.31;;;29.95;100.00
34243;BME280;20504;43.214;27.920;2023-04-15T15:10:46;100305.44;;;29.46;100.00
34243;BME280;20504;43.214;27.920;2023-04-15T15:13:11;100323.53;;;28.97;100.00
34243;BME280;20504;43.214;27.920;2023-04-15T15:15:37;100399.34;;;29.45;100.00
34243;BME280;20504;43.214;27.920;2023-04-15T15:18:04;100451.97;;;29.34;100.00
34243;BME280;20504;43.214;27.920;2023-04-15T15:20:30;100451.81;;;29.04;100.00
34243;BME280;20504;43.214;27.920;2023-04-15T15:22:57;100474.47;;;28.01;100.00
34243;BME280;20504;43.214;27.920;2023-04-15T15:25:22;100325.84;;;26.55;100.00
34243;BME280;20504;43.214;27.920;2023-04-15T15:27:48;100130.00;;;25.62;100.00
34243;BME280;20504;43.214;27.920;2023-04-15T15:30:14;99879.59;;;24.94;100.00
34243;BME280;20504;43.214;27.920;2023-04-15T15:32:41;100137.59;;;23.73;100.00
34243;BME280;20504;43.214;27.920;2023-04-15T15:35:07;100121.34;;;23.37;100.00
34243;BME280;20504;43.214;27.920;2023-04-15T15:37:34;100322.22;;;22.72;100.00
34243;BME280;20504;43.214;27.920;2023-04-15T15:39:59;100341.84;;;22.65;100.00
34243;BME280;20504;43.214;27.920;2023-04-15T15:42:30;100549.22;;;22.49;100.00
34243;BME280;20504;43.214;27.920;2023-04-15T15:44:56;100569.06;;;22.25;100.00
34243;BME280;20504;43.214;27.920;2023-04-15T15:47:24;100561.34;;;21.97;100.00
34243;BME280;20504;43.214;27.920;2023-04-15T15:50:11;100416.06;;;21.85;100.00
34243;BME280;20504;43.214;27.920;2023-04-15T15:52:37;100476.91;;;21.40;100.00
34243;BME280;20504;43.214;27.920;2023-04-15T15:55:08;100494.03;;;20.90;100.00
34243;BME280;20504;43.214;27.920;2023-04-15T15:57:47;100631.41;;;21.16;100.00
34243;BME280;20504;43.214;27.920;2023-04-15T16:00:48;100743.31;;;21.12;100.00
34243;BME280;20504;43.214;27.920;2023-04-15T16:03:18;100764.88;;;20.34;100.00
34243;BME280;20504;43.214;27.920;2023-04-15T16:05:47;100888.81;;;20.52;100.00
34243;BME280;20504;43.214;27.920;2023-04-15T16:08:35;100993.97;;;20.33;100.00
34243;BME280;20504;43.214;27.920;2023-04-15T16:11:00;101046.09;;;20.14;100.00
34243;BME280;20504;43.214;27.920;2023-04-15T16:13:26;101023.88;;;20.02;100.00
34243;BME280;20504;43.214;27.920;2023-04-15T16:15:52;101024.72;;;19.27;100.00
34243;BME280;20504;43.214;27.920;2023-04-15T16:18:17;101016.09;;;19.14;100.00
34243;BME280;20504;43.214;27.920;2023-04-15T16:20:43;100997.44;;;19.22;100.00
34243;BME280;20504;43.214;27.920;2023-04-15T16:23:13;100991.75;;;18.96;100.00
34243;BME280;20504;43.214;27.920;2023-04-15T16:25:41;100991.66;;;18.78;100.00
34243;BME280;20504;43.214;27.920;2023-04-15T16:28:06;100991.94;;;18.85;100.00
34243;BME280;20504;43.214;27.920;2023-04-15T16:30:35;100968.28;;;18.69;100.00
34243;BME280;20504;43.214;27.920;2023-04-15T16:33:01;100953.88;;;18.80;100.00
34243;BME280;20504;43.214;27.920;2023-04-15T16:35:26;100915.41;;;18.89;100.00
34243;BME280;20504;43.214;27.920;2023-04-15T16:37:52;100881.88;;;18.83;100.00
34243;BME280;20504;43.214;27.920;2023-04-15T16:40:18;100898.16;;;18.72;100.00
34243;BME280;20504;43.214;27.920;2023-04-15T16:42:43;100859.66;;;18.52;100.00
34243;BME280;20504;43.214;27.920;2023-04-15T16:45:09;100879.47;;;18.32;100.00
34243;BME280;20504;43.214;27.920;2023-04-15T16:47:34;100835.66;;;18.31;100.00
34243;BME280;20504;43.214;27.920;2023-04-15T16:50:00;100829.97;;;18.15;100.00
34243;BME280;20504;43.214;27.920;2023-04-15T16:52:27;100856.56;;;18.28;100.00
34243;BME280;20504;43.214;27.920;2023-04-15T16:54:52;100850.34;;;18.08;100.00
34243;BME280;20504;43.214;27.920;2023-04-15T16:57:18;100824.63;;;18.05;100.00
34243;BME280;20504;43.214;27.920;2023-04-15T16:59:43;100823.91;;;18.13;100.00
34243;BME280;20504;43.214;27.920;2023-04-15T17:02:12;100805.25;;;17.92;100.00
34243;BME280;20504;43.214;27.920;2023-04-15T17:04:39;100807.22;;;18.00;100.00
34243;BME280;20504;43.214;27.920;2023-04-15T17:07:06;100784.50;;;18.04;100.00
34243;BME280;20504;43.214;27.920;2023-04-15T17:09:33;100808.94;;;18.20;100.00
34243;BME280;20504;43.214;27.920;2023-04-15T17:11:59;100811.06;;;18.07;100.00
34243;BME280;20504;43.214;27.920;2023-04-15T17:14:26;100822.94;;;18.24;100.00
34243;BME280;20504;43.214;27.920;2023-04-15T17:16:53;100821.94;;;18.15;100.00
34243;BME280;20504;43.214;27.920;2023-04-15T17:19:18;100822.22;;;18.12;100.00
34243;BME280;20504;43.214;27.920;2023-04-15T17:21:44;100840.72;;;18.05;100.00
34243;BME280;20504;43.214;27.920;2023-04-15T17:24:09;100843.97;;;18.09;100.00
34243;BME280;20504;43.214;27.920;2023-04-15T17:26:35;100831.81;;;17.85;100.00
34243;BME280;20504;43.214;27.920;2023-04-15T17:29:00;100844.09;;;17.98;100.00
34243;BME280;20504;43.214;27.920;2023-04-15T17:31:26;100840.16;;;18.11;100.00
34243;BME280;20504;43.214;27.920;2023-04-15T17:33:54;100846.66;;;18.09;100.00
34243;BME280;20504;43.214;27.920;2023-04-15T17:36:20;100845.50;;;18.02;100.00
34243;BME280;20504;43.214;27.920;2023-04-15T17:38:46;100833.63;;;17.95;100.00
34243;BME280;20504;43.214;27.920;2023-04-15T17:41:11;100844.38;;;17.95;100.00
34243;BME280;20504;43.214;27.920;2023-04-15T17:43:37;100840.94;;;17.83;100.00
34243;BME280;20504;43.214;27.920;2023-04-15T17:46:02;100836.75;;;17.90;100.00
34243;BME280;20504;43.214;27.920;2023-04-15T17:48:28;100822.16;;;17.83;100.00
34243;BME280;20504;43.214;27.920;2023-04-15T17:50:53;100832.78;;;17.94;100.00
34243;BME280;20504;43.214;27.920;2023-04-15T17:53:19;100835.34;;;17.96;100.00
34243;BME280;20504;43.214;27.920;2023-04-15T17:55:45;100838.81;;;17.77;100.00
34243;BME280;20504;43.214;27.920;2023-04-15T17:58:10;100835.28;;;17.76;100.00
34243;BME280;20504;43.214;27.920;2023-04-15T18:00:36;100836.97;;;17.68;100.00
34243;BME280;20504;43.214;27.920;2023-04-15T18:03:01;100847.44;;;17.80;100.00
34243;BME280;20504;43.214;27.920;2023-04-15T18:05:28;100826.53;;;17.74;100.00
34243;BME280;20504;43.214;27.920;2023-04-15T18:07:53;100839.53;;;17.79;100.00
34243;BME280;20504;43.214;27.920;2023-04-15T18:10:20;100833.88;;;17.72;100.00
34243;BME280;20504;43.214;27.920;2023-04-15T18:12:46;100847.28;;;17.72;100.00
34243;BME280;20504;43.214;27.920;2023-04-15T18:15:12;100844.38;;;17.85;100.00
34243;BME280;20504;43.214;27.920;2023-04-15T18:17:38;100840.94;;;17.73;100.00
34243;BME280;20504;43.214;27.920;2023-04-15T18:20:04;100846.91;;;17.87;100.00
34243;BME280;20504;43.214;27.920;2023-04-15T18:22:30;100860.56;;;17.83;100.00
34243;BME280;20504;43.214;27.920;2023-04-15T18:24:56;100857.38;;;17.90;100.00
34243;BME280;20504;43.214;27.920;2023-04-15T18:27:27;100855.06;;;17.75;100.00
34243;BME280;20504;43.214;27.920;2023-04-15T18:29:52;100843.19;;;17.68;100.00
34243;BME280;20504;43.214;27.920;2023-04-15T18:32:18;100846.59;;;17.80;100.00
34243;BME280;20504;43.214;27.920;2023-04-15T18:34:43;100857.94;;;17.93;100.00
34243;BME280;20504;43.214;27.920;2023-04-15T18:37:09;100856.09;;;17.94;100.00
34243;BME280;20504;43.214;27.920;2023-04-15T18:39:34;100843.66;;;17.93;100.00
34243;BME280;20504;43.214;27.920;2023-04-15T18:42:00;100850.59;;;17.95;100.00
34243;BME280;20504;43.214;27.920;2023-04-15T18:44:26;100864.47;;;18.10;100.00
34243;BME280;20504;43.214;27.920;2023-04-15T18:46:52;100865.97;;;18.03;100.00
34243;BME280;20504;43.214;27.920;2023-04-15T18:49:18;100858.22;;;17.90;100.00
34243;BME280;20504;43.214;27.920;2023-04-15T18:51:43;100866.69;;;17.95;100.00
34243;BME280;20504;43.214;27.920;2023-04-15T18:54:09;100868.09;;;17.99;100.00
34243;BME280;20504;43.214;27.920;2023-04-15T18:56:34;100863.44;;;17.92;100.00
34243;BME280;20504;43.214;27.920;2023-04-15T18:59:00;100870.41;;;18.04;100.00
34243;BME280;20504;43.214;27.920;2023-04-15T19:01:25;100836.63;;;18.40;100.00
34243;BME280;20504;43.214;27.920;2023-04-15T19:03:51;100793.94;;;18.56;100.00
34243;BME280;20504;43.214;27.920;2023-04-15T19:06:16;100795.34;;;18.70;100.00
34243;BME280;20504;43.214;27.920;2023-04-15T19:08:42;100800.84;;;18.88;100.00
34243;BME280;20504;43.214;27.920;2023-04-15T19:11:07;100787.56;;;18.76;100.00
34243;BME280;20504;43.214;27.920;2023-04-15T19:13:33;100829.16;;;18.82;100.00
34243;BME280;20504;43.214;27.920;2023-04-15T19:15:58;100841.88;;;18.80;100.00
34243;BME280;20504;43.214;27.920;2023-04-15T19:18:25;100882.59;;;18.85;100.00
34243;BME280;20504;43.214;27.920;2023-04-15T19:20:50;100875.41;;;18.66;100.00
34243;BME280;20504;43.214;27.920;2023-04-15T19:23:17;100895.91;;;18.67;100.00
34243;BME280;20504;43.214;27.920;2023-04-15T19:25:42;100898.16;;;18.72;100.00
34243;BME280;20504;43.214;27.920;2023-04-15T19:28:08;100895.63;;;18.80;100.00
34243;BME280;20504;43.214;27.920;2023-04-15T19:30:34;100886.56;;;18.71;100.00
34243;BME280;20504;43.214;27.920;2023-04-15T19:33:00;100902.09;;;18.77;100.00
34243;BME280;20504;43.214;27.920;2023-04-15T19:35:25;100902.81;;;18.70;100.00
34243;BME280;20504;43.214;27.920;2023-04-15T19:37:51;100895.59;;;18.70;100.00
34243;BME280;20504;43.214;27.920;2023-04-15T19:40:16;100896.16;;;18.74;100.00
34243;BME280;20504;43.214;27.920;2023-04-15T19:42:42;100895.06;;;18.67;100.00
34243;BME280;20504;43.214;27.920;2023-04-15T19:45:07;100885.28;;;18.66;100.00
34243;BME280;20504;43.214;27.920;2023-04-15T19:47:33;100862.63;;;18.59;100.00
34243;BME280;20504;43.214;27.920;2023-04-15T19:49:59;100892.50;;;18.75;100.00
34243;BME280;20504;43.214;27.920;2023-04-15T19:52:25;100911.72;;;18.61;100.00
34243;BME280;20504;43.214;27.920;2023-04-15T19:54:50;100904.78;;;18.49;100.00
34243;BME280;20504;43.214;27.920;2023-04-15T19:57:16;100900.66;;;18.35;100.00
34243;BME280;20504;43.214;27.920;2023-04-15T19:59:41;100891.63;;;18.26;100.00
34243;BME280;20504;43.214;27.920;2023-04-15T20:02:07;100895.97;;;18.17;100.00
34243;BME280;20504;43.214;27.920;2023-04-15T20:04:33;100903.47;;;18.24;100.00
34243;BME280;20504;43.214;27.920;2023-04-15T20:06:58;100901.38;;;18.27;100.00
34243;BME280;20504;43.214;27.920;2023-04-15T20:09:24;100896.84;;;18.37;100.00
34243;BME280;20504;43.214;27.920;2023-04-15T20:11:49;100895.56;;;18.22;100.00
34243;BME280;20504;43.214;27.920;2023-04-15T20:14:15;100907.56;;;18.18;100.00
34243;BME280;20504;43.214;27.920;2023-04-15T20:16:41;100893.66;;;17.94;100.00
34243;BME280;20504;43.214;27.920;2023-04-15T20:19:07;100892.94;;;17.92;100.00
34243;BME280;20504;43.214;27.920;2023-04-15T20:21:37;100908.81;;;18.04;100.00
34243;BME280;20504;43.214;27.920;2023-04-15T20:24:03;100904.28;;;18.05;100.00
34243;BME280;20504;43.214;27.920;2023-04-15T20:26:29;100898.03;;;17.95;100.00
34243;BME280;20504;43.214;27.920;2023-04-15T20:28:55;100907.69;;;18.07;100.00
34243;BME280;20504;43.214;27.920;2023-04-15T20:31:21;100910.66;;;18.13;100.00
34243;BME280;20504;43.214;27.920;2023-04-15T20:33:47;100904.81;;;17.99;100.00
34243;BME280;20504;43.214;27.920;2023-04-15T20:36:12;100914.56;;;18.00;100.00
34243;BME280;20504;43.214;27.920;2023-04-15T20:38:38;100915.28;;;18.02;100.00
34243;BME280;20504;43.214;27.920;2023-04-15T20:41:04;100901.03;;;18.11;100.00
34243;BME280;20504;43.214;27.920;2023-04-15T20:43:30;100903.84;;;18.00;100.00
34243;BME280;20504;43.214;27.920;2023-04-15T20:45:56;100878.69;;;18.01;100.00
34243;BME280;20504;43.214;27.920;2023-04-15T20:48:21;100902.75;;;18.22;100.00
34243;BME280;20504;43.214;27.920;2023-04-15T20:50:48;100903.03;;;18.09;100.00
34243;BME280;20504;43.214;27.920;2023-04-15T20:53:14;100885.69;;;18.23;100.00
34243;BME280;20504;43.214;27.920;2023-04-15T20:55:39;100903.75;;;18.30;100.00
34243;BME280;20504;43.214;27.920;2023-04-15T20:58:05;100901.78;;;18.32;100.00
34243;BME280;20504;43.214;27.920;2023-04-15T21:00:30;100892.16;;;18.39;100.00
34243;BME280;20504;43.214;27.920;2023-04-15T21:02:57;100894.72;;;18.51;100.00
34243;BME280;20504;43.214;27.920;2023-04-15T21:05:23;100910.56;;;18.44;100.00
34243;BME280;20504;43.214;27.920;2023-04-15T21:07:48;100899.53;;;18.47;100.00
34243;BME280;20504;43.214;27.920;2023-04-15T21:10:14;100919.91;;;18.50;100.00
34243;BME280;20504;43.214;27.920;2023-04-15T21:12:39;100928.94;;;18.49;100.00
34243;BME280;20504;43.214;27.920;2023-04-15T21:15:06;100920.63;;;18.61;100.00
34243;BME280;20504;43.214;27.920;2023-04-15T21:17:31;100915.66;;;18.47;100.00
34243;BME280;20504;43.214;27.920;2023-04-15T21:19:59;100911.56;;;18.53;100.00
34243;BME280;20504;43.214;27.920;2023-04-15T21:22:25;100913.94;;;18.56;100.00
34243;BME280;20504;43.214;27.920;2023-04-15T21:24:50;100909.75;;;18.63;100.00
34243;BME280;20504;43.214;27.920;2023-04-15T21:27:16;100904.06;;;18.46;100.00
34243;BME280;20504;43.214;27.920;2023-04-15T21:29:41;100913.81;;;18.48;100.00
34243;BME280;20504;43.214;27.920;2023-04-15T21:32:07;100920.22;;;18.66;100.00
34243;BME280;20504;43.214;27.920;2023-04-15T21:34:32;100914.84;;;18.66;100.00
34243;BME280;20504;43.214;27.920;2023-04-15T21:36:58;100936.63;;;18.63;100.00
34243;BME280;20504;43.214;27.920;2023-04-15T21:39:23;100924.00;;;18.54;100.00
34243;BME280;20504;43.214;27.920;2023-04-15T21:41:49;100929.78;;;18.49;100.00
34243;BME280;20504;43.214;27.920;2023-04-15T21:44:15;100920.47;;;18.53;100.00
34243;BME280;20504;43.214;27.920;2023-04-15T21:46:40;100934.34;;;18.68;100.00
34243;BME280;20504;43.214;27.920;2023-04-15T21:49:06;100940.41;;;18.60;100.00
34243;BME280;20504;43.214;27.920;2023-04-15T21:51:31;100946.75;;;18.50;100.00
34243;BME280;20504;43.214;27.920;2023-04-15T21:53:57;100949.44;;;18.59;100.00
34243;BME280;20504;43.214;27.920;2023-04-15T21:56:23;100948.06;;;18.65;100.00
34243;BME280;20504;43.214;27.920;2023-04-15T21:58:49;100943.94;;;18.61;100.00
34243;BME280;20504;43.214;27.920;2023-04-15T22:01:15;100953.25;;;18.57;100.00
34243;BME280;20504;43.214;27.920;2023-04-15T22:03:41;100953.53;;;18.54;100.00
34243;BME280;20504;43.214;27.920;2023-04-15T22:06:07;100957.63;;;18.58;100.00
34243;BME280;20504;43.214;27.920;2023-04-15T22:08:32;100957.91;;;18.55;100.00
34243;BME280;20504;43.214;27.920;2023-04-15T22:10:58;100943.94;;;18.41;100.00
34243;BME280;20504;43.214;27.920;2023-04-15T22:13:23;100953.84;;;18.60;100.00
34243;BME280;20504;43.214;27.920;2023-04-15T22:15:49;100953.38;;;18.55;100.00
34243;BME280;20504;43.214;27.920;2023-04-15T22:18:15;100955.78;;;18.49;100.00
34243;BME280;20504;43.214;27.920;2023-04-15T22:20:40;100937.28;;;18.45;100.00
34243;BME280;20504;43.214;27.920;2023-04-15T22:23:05;100953.13;;;18.49;100.00
34243;BME280;20504;43.214;27.920;2023-04-15T22:25:37;100957.63;;;18.48;100.00
34243;BME280;20504;43.214;27.920;2023-04-15T22:28:06;100961.75;;;18.42;100.00
34243;BME280;20504;43.214;27.920;2023-04-15T22:30:39;100944.88;;;18.40;100.00
34243;BME280;20504;43.214;27.920;2023-04-15T22:33:06;100954.53;;;18.43;100.00
34243;BME280;20504;43.214;27.920;2023-04-15T22:35:34;100953.25;;;18.47;100.00
34243;BME280;20504;43.214;27.920;2023-04-15T22:38:00;100957.06;;;18.44;100.00
34243;BME280;20504;43.214;27.920;2023-04-15T22:40:27;100953.94;;;18.30;100.00
34243;BME280;20504;43.214;27.920;2023-04-15T22:42:53;100949.97;;;18.34;100.00
34243;BME280;20504;43.214;27.920;2023-04-15T22:45:18;100945.59;;;18.33;100.00
34243;BME280;20504;43.214;27.920;2023-04-15T22:47:44;100945.81;;;18.10;100.00
34243;BME280;20504;43.214;27.920;2023-04-15T22:50:10;100940.03;;;18.15;100.00
34243;BME280;20504;43.214;27.920;2023-04-15T22:52:35;100923.78;;;18.16;100.00
34243;BME280;20504;43.214;27.920;2023-04-15T22:55:01;100917.13;;;18.01;100.00
34243;BME280;20504;43.214;27.920;2023-04-15T22:57:27;100926.63;;;18.15;100.00
34243;BME280;20504;43.214;27.920;2023-04-15T22:59:53;100939.91;;;18.07;100.00
34243;BME280;20504;43.214;27.920;2023-04-15T23:02:18;100921.06;;;17.97;100.00
34243;BME280;20504;43.214;27.920;2023-04-15T23:04:44;100909.19;;;18.00;100.00
34243;BME280;20504;43.214;27.920;2023-04-15T23:07:10;100913.84;;;17.98;100.00
34243;BME280;20504;43.214;27.920;2023-04-15T23:09:36;100901.28;;;17.89;100.00
34243;BME280;20504;43.214;27.920;2023-04-15T23:12:02;100893.25;;;17.98;100.00
34243;BME280;20504;43.214;27.920;2023-04-15T23:14:27;100879.41;;;17.93;100.00
34243;BME280;20504;43.214;27.920;2023-04-15T23:16:53;100894.66;;;17.93;100.00
34243;BME280;20504;43.214;27.920;2023-04-15T23:19:19;100885.00;;;17.80;100.00
34243;BME280;20504;43.214;27.920;2023-04-15T23:21:44;100861.97;;;17.78;100.00
34243;BME280;20504;43.214;27.920;2023-04-15T23:24:11;100861.41;;;17.74;100.00
34243;BME280;20504;43.214;27.920;2023-04-15T23:26:36;100862.97;;;17.77;100.00
34243;BME280;20504;43.214;27.920;2023-04-15T23:29:02;100853.28;;;17.55;100.00
34243;BME280;20504;43.214;27.920;2023-04-15T23:31:27;100836.34;;;17.64;100.00
34243;BME280;20504;43.214;27.920;2023-04-15T23:33:53;100820.47;;;17.42;100.00
34243;BME280;20504;43.214;27.920;2023-04-15T23:36:18;100806.13;;;17.52;100.00
34243;BME280;20504;43.214;27.920;2023-04-15T23:38:43;100782.41;;;17.58;100.00
34243;BME280;20504;43.214;27.920;2023-04-15T23:41:09;100781.84;;;17.54;100.00
34243;BME280;20504;43.214;27.920;2023-04-15T23:43:36;100765.47;;;17.57;100.00
34243;BME280;20504;43.214;27.920;2023-04-15T23:46:01;100749.50;;;17.46;100.00
34243;BME280;20504;43.214;27.920;2023-04-15T23:48:27;100745.81;;;17.47;100.00
34243;BME280;20504;43.214;27.920;2023-04-15T23:50:54;100744.88;;;17.58;100.00
34243;BME280;20504;43.214;27.920;2023-04-15T23:53:19;100727.94;;;17.57;100.00
34243;BME280;20504;43.214;27.920;2023-04-15T23:55:45;100714.38;;;17.49;100.00
34243;BME280;20504;43.214;27.920;2023-04-15T23:58:10;100710.00;;;17.48;100.00
